Time;durP1;ratioP1;P1;durP2;ratioP2;P2;SDS_P1;SDS_P2;PMS_P1;PMS_P2;Temp;Humidity;BMP_temperature;BMP_pressure;BME280_temperature;BME280_humidity;BME280_pressure;Samples;Min_cycle;Max_cycle;Signal;HPM_P1;HPM_P2
2021/08/05 00:01:53;;;;;;;9.38;5.25;;;;;;;22.98;62.99;100399.56;5094220;28;20044;-64
2021/08/05 00:04:20;;;;;;;8.20;5.78;;;;;;;23.06;62.65;100405.84;5094117;28;20044;-64
2021/08/05 00:06:47;;;;;;;10.45;5.57;;;;;;;22.99;63.07;100408.41;5093618;28;20044;-64
2021/08/05 00:09:14;;;;;;;8.85;5.13;;;;;;;22.93;63.48;100409.13;5093857;28;20097;-64
2021/08/05 00:11:40;;;;;;;5.93;4.72;;;;;;;22.93;63.72;100406.44;5094042;28;20044;-64
2021/08/05 00:14:07;;;;;;;6.32;4.20;;;;;;;22.90;63.77;100406.81;5094031;28;20048;-64
2021/08/05 00:16:34;;;;;;;9.57;4.68;;;;;;;22.79;64.34;100402.66;5094051;28;20070;-64
2021/08/05 00:19:01;;;;;;;5.78;4.30;;;;;;;22.91;63.98;100389.75;5093840;28;20109;-64
2021/08/05 00:21:28;;;;;;;8.30;4.50;;;;;;;22.87;64.23;100388.41;5093744;28;20063;-64
2021/08/05 00:23:54;;;;;;;7.28;4.22;;;;;;;22.95;64.12;100380.34;5093686;28;20093;-64
2021/08/05 00:26:21;;;;;;;6.25;4.10;;;;;;;22.93;64.42;100369.81;5093612;28;20101;-64
2021/08/05 00:28:47;;;;;;;7.65;4.68;;;;;;;22.91;64.49;100366.50;5093531;28;20544;-64
2021/08/05 00:31:17;;;;;;;7.30;4.00;;;;;;;22.82;64.82;100367.56;5093468;28;20127;-64
2021/08/05 00:33:44;;;;;;;6.28;4.43;;;;;;;22.75;65.12;100353.22;5093598;28;20098;-64
2021/08/05 00:36:11;;;;;;;6.75;4.10;;;;;;;22.73;65.29;100349.88;5093528;28;20048;-64
2021/08/05 00:38:37;;;;;;;8.02;4.25;;;;;;;22.78;65.41;100343.00;5093584;28;20133;-64
2021/08/05 00:41:04;;;;;;;7.18;4.55;;;;;;;22.79;65.48;100335.78;5093443;28;20040;-64
2021/08/05 00:43:34;;;;;;;6.05;4.30;;;;;;;22.86;65.16;100325.25;5093332;28;20040;-64
2021/08/05 00:46:02;;;;;;;8.43;4.47;;;;;;;22.77;65.41;100327.13;5093330;28;20058;-64
2021/08/05 00:48:28;;;;;;;5.68;3.88;;;;;;;22.70;65.68;100329.66;5093067;28;20048;-64
2021/08/05 00:50:57;;;;;;;6.68;3.60;;;;;;;22.66;65.64;100321.19;5093372;28;20509;-64
2021/08/05 00:53:27;;;;;;;3.65;3.05;;;;;;;22.65;65.20;100322.19;5093266;28;20071;-65
2021/08/05 00:55:55;;;;;;;3.80;2.90;;;;;;;22.57;65.07;100313.38;5093242;28;20052;-64
2021/08/05 00:58:22;;;;;;;4.05;2.78;;;;;;;22.60;65.19;100305.84;5093254;28;20048;-64
2021/08/05 01:00:52;;;;;;;4.45;2.70;;;;;;;22.57;64.91;100308.84;5093084;28;20100;-64
2021/08/05 01:03:27;;;;;;;4.13;2.65;;;;;;;22.61;64.91;100309.34;5092895;28;20101;-64
2021/08/05 01:06:08;;;;;;;4.53;3.00;;;;;;;22.59;64.42;100303.31;5092966;28;20101;-64
2021/08/05 01:08:41;;;;;;;3.67;2.58;;;;;;;22.63;64.35;100301.97;5093105;28;20044;-64
2021/08/05 01:11:24;;;;;;;3.33;2.70;;;;;;;22.71;64.01;100306.44;5092762;28;20044;-64
2021/08/05 01:13:54;;;;;;;4.82;3.20;;;;;;;22.74;64.01;100312.28;5092789;28;20040;-64
2021/08/05 01:16:24;;;;;;;3.63;2.70;;;;;;;22.59;64.17;100309.50;5092420;28;20055;-64
2021/08/05 01:18:56;;;;;;;4.53;2.42;;;;;;;22.44;64.78;100308.59;5092389;28;20127;-64
2021/08/05 01:21:34;;;;;;;5.18;2.70;;;;;;;22.40;64.92;100320.63;5092566;28;20471;-64
2021/08/05 01:24:06;;;;;;;2.80;2.50;;;;;;;22.41;64.79;100330.31;5092692;28;20059;-64
2021/08/05 01:26:48;;;;;;;4.22;2.58;;;;;;;22.43;64.56;100331.81;5092640;28;20047;-64
2021/08/05 01:29:24;;;;;;;4.57;2.58;;;;;;;22.40;64.66;100334.84;5092426;28;20048;-64
2021/08/05 01:31:53;;;;;;;3.33;2.00;;;;;;;22.27;64.62;100338.06;5092462;28;20051;-64
2021/08/05 01:34:22;;;;;;;3.20;2.00;;;;;;;22.29;64.66;100330.69;5092393;28;20044;-64
2021/08/05 01:36:50;;;;;;;3.97;1.73;;;;;;;22.35;64.10;100342.53;5092418;28;20044;-64
2021/08/05 01:39:17;;;;;;;3.30;2.10;;;;;;;22.34;64.07;100336.34;5092263;28;20040;-64
2021/08/05 01:41:47;;;;;;;7.55;2.47;;;;;;;22.40;63.75;100342.88;5092723;28;20448;-64
2021/08/05 01:44:15;;;;;;;6.13;2.00;;;;;;;22.42;63.63;100340.84;5092393;28;20097;-64
2021/08/05 01:46:42;;;;;;;3.20;1.63;;;;;;;22.41;63.36;100333.00;5092474;28;20048;-64
2021/08/05 01:49:10;;;;;;;3.05;2.00;;;;;;;22.41;63.25;100327.66;5092212;28;20119;-64
2021/08/05 01:51:37;;;;;;;2.10;1.58;;;;;;;22.39;63.38;100332.38;5092427;28;20425;-64
2021/08/05 01:54:04;;;;;;;2.35;1.60;;;;;;;22.32;63.10;100333.03;5092137;28;20044;-64
2021/08/05 01:56:31;;;;;;;2.45;1.70;;;;;;;22.28;63.19;100321.03;5092043;28;20052;-64
2021/08/05 01:58:59;;;;;;;2.03;1.75;;;;;;;22.26;63.18;100325.69;5092353;28;20044;-64
2021/08/05 02:01:26;;;;;;;3.80;1.70;;;;;;;22.22;63.28;100320.88;5092124;28;20218;-64
2021/08/05 02:04:28;;;;;;;3.90;2.00;;;;;;;22.16;63.65;100314.38;5092476;28;20435;-64
2021/08/05 02:07:19;;;;;;;3.55;2.00;;;;;;;22.14;63.50;100330.59;5092249;28;20044;-64
2021/08/05 02:09:56;;;;;;;2.75;1.70;;;;;;;22.04;63.75;100332.63;5092043;28;20052;-64
2021/08/05 02:12:23;;;;;;;2.83;1.73;;;;;;;22.05;63.84;100331.63;5092350;28;20080;-64
2021/08/05 02:14:52;;;;;;;2.85;1.77;;;;;;;22.05;63.70;100331.63;5091992;28;20090;-64
2021/08/05 02:17:19;;;;;;;3.42;1.70;;;;;;;22.04;64.16;100331.78;5092002;28;20047;-64
2021/08/05 02:19:46;;;;;;;2.53;1.70;;;;;;;21.97;64.17;100329.81;5091988;28;20052;-64
2021/08/05 02:22:17;;;;;;;2.90;2.10;;;;;;;21.94;64.24;100316.81;5091932;28;20044;-64
2021/08/05 02:24:45;;;;;;;3.10;1.92;;;;;;;21.93;64.52;100317.81;5091912;28;20048;-64
2021/08/05 02:27:12;;;;;;;3.83;2.20;;;;;;;21.93;64.77;100319.63;5091891;28;20044;-64
2021/08/05 02:29:39;;;;;;;2.80;1.83;;;;;;;21.85;64.67;100307.13;5094924;28;20121;-64
2021/08/05 02:32:06;;;;;;;2.92;1.58;;;;;;;21.82;65.07;100299.47;5096125;28;20056;-64
2021/08/05 02:34:35;;;;;;;2.20;1.50;;;;;;;21.74;65.28;100294.13;5096002;28;20040;-64
2021/08/05 02:37:04;;;;;;;4.05;1.52;;;;;;;21.63;65.68;100290.00;5095891;28;20048;-64
2021/08/05 02:39:32;;;;;;;2.25;1.38;;;;;;;21.57;65.60;100288.84;5095656;28;20044;-64
2021/08/05 02:41:59;;;;;;;2.15;1.40;;;;;;;21.52;65.90;100288.50;5095656;28;20553;-64
2021/08/05 02:44:27;;;;;;;1.35;0.98;;;;;;;21.52;65.66;100288.50;5095569;28;20044;-64
2021/08/05 02:46:55;;;;;;;1.70;1.25;;;;;;;21.45;65.85;100287.53;5095705;28;20048;-64
2021/08/05 02:49:22;;;;;;;2.90;1.30;;;;;;;21.34;66.21;100272.69;5095460;28;20169;-63
2021/08/05 02:51:49;;;;;;;1.65;1.30;;;;;;;21.30;66.52;100274.03;5095676;28;20048;-64
2021/08/05 02:54:16;;;;;;;2.00;1.00;;;;;;;21.25;66.51;100281.69;5095590;28;20482;-64
2021/08/05 02:56:43;;;;;;;1.30;0.93;;;;;;;21.30;66.53;100277.50;5095511;28;20048;-64
2021/08/05 02:59:11;;;;;;;1.95;1.10;;;;;;;21.26;66.16;100272.69;5095393;28;20059;-65
2021/08/05 03:01:37;;;;;;;1.23;0.82;;;;;;;21.34;66.31;100273.53;5095439;28;20048;-64
2021/08/05 03:04:04;;;;;;;2.97;0.90;;;;;;;21.30;66.25;100266.84;5095356;28;20048;-64
2021/08/05 03:06:31;;;;;;;2.22;1.30;;;;;;;21.41;66.18;100264.81;5095218;28;20044;-64
2021/08/05 03:08:58;;;;;;;2.30;0.85;;;;;;;21.48;65.53;100263.16;5095186;28;20044;-64
2021/08/05 03:11:25;;;;;;;2.47;1.00;;;;;;;21.43;65.59;100271.66;5095016;28;20472;-64
2021/08/05 03:13:51;;;;;;;1.33;0.80;;;;;;;21.43;65.47;100262.81;5095174;28;20048;-64
2021/08/05 03:16:18;;;;;;;2.53;0.93;;;;;;;21.34;65.54;100259.34;5095012;28;20109;-64
2021/08/05 03:18:44;;;;;;;1.33;0.90;;;;;;;21.44;65.11;100259.16;5095143;28;20078;-64
2021/08/05 03:21:11;;;;;;;1.70;1.00;;;;;;;21.32;65.40;100256.84;5094921;28;20043;-64
2021/08/05 03:23:38;;;;;;;1.70;0.88;;;;;;;21.37;64.67;100259.81;5095081;28;20117;-64
2021/08/05 03:26:05;;;;;;;1.20;0.80;;;;;;;21.41;64.51;100262.16;5094993;28;20109;-64
2021/08/05 03:28:32;;;;;;;1.50;0.95;;;;;;;21.46;64.20;100249.16;5094770;28;20048;-64
2021/08/05 03:30:59;;;;;;;2.30;1.10;;;;;;;21.46;64.21;100251.81;5094928;28;20047;-64
2021/08/05 03:33:25;;;;;;;1.90;1.00;;;;;;;21.45;63.85;100250.16;5094694;28;20044;-64
2021/08/05 03:35:52;;;;;;;1.85;0.82;;;;;;;21.40;64.15;100244.50;5094784;28;20051;-64
2021/08/05 03:38:19;;;;;;;1.38;0.60;;;;;;;21.39;63.97;100246.31;5094627;28;20083;-64
2021/08/05 03:40:45;;;;;;;2.55;0.80;;;;;;;21.39;63.93;100246.31;5093891;28;20113;-64
2021/08/05 03:43:12;;;;;;;1.42;0.60;;;;;;;21.36;64.21;100255.50;5094572;28;20040;-63
2021/08/05 03:45:38;;;;;;;1.80;0.75;;;;;;;21.38;63.95;100247.31;5094490;28;20062;-64
2021/08/05 03:48:05;;;;;;;2.50;0.82;;;;;;;21.37;64.16;100256.34;5094641;28;20044;-64
2021/08/05 03:50:32;;;;;;;1.42;0.90;;;;;;;;;;5094250;28;20048;-64
2021/08/05 03:52:58;;;;;;;5.95;1.08;;;;;;;21.39;64.08;100253.50;5094312;28;20478;-64
2021/08/05 03:55:25;;;;;;;3.00;1.63;;;;;;;21.33;63.89;100253.16;5094163;28;20109;-64
2021/08/05 03:57:52;;;;;;;1.45;1.02;;;;;;;21.31;64.21;100244.50;5094403;28;20456;-64
2021/08/05 04:00:19;;;;;;;2.55;1.13;;;;;;;21.31;63.82;100241.81;5094145;28;20414;-64
2021/08/05 04:02:45;;;;;;;0.98;0.60;;;;;;;21.22;64.26;100237.50;5094232;28;20040;-64
2021/08/05 04:05:12;;;;;;;1.00;0.50;;;;;;;21.23;64.15;100239.19;5094155;28;20093;-64
2021/08/05 04:07:39;;;;;;;2.65;0.68;;;;;;;21.22;63.77;100237.50;5094075;28;20547;-64
2021/08/05 04:10:07;;;;;;;1.48;0.68;;;;;;;21.21;63.50;100228.66;5093970;28;20054;-64
2021/08/05 04:12:33;;;;;;;2.13;0.50;;;;;;;21.21;63.31;100234.00;5093932;28;20478;-64
2021/08/05 04:15:00;;;;;;;1.17;0.47;;;;;;;21.25;62.87;100236.34;5094004;28;20048;-64
2021/08/05 04:17:27;;;;;;;1.42;0.30;;;;;;;21.22;62.59;100245.50;5093842;28;20055;-64
2021/08/05 04:19:53;;;;;;;2.20;0.40;;;;;;;21.21;62.03;100251.84;5093879;28;20044;-64
2021/08/05 04:22:20;;;;;;;1.85;0.35;;;;;;;21.24;61.53;100250.69;5093840;28;20052;-64
2021/08/05 04:24:46;;;;;;;1.00;0.30;;;;;;;21.13;61.61;100254.53;5075959;28;20048;-64
2021/08/05 04:27:13;;;;;;;1.85;0.40;;;;;;;21.18;60.98;100255.69;5093773;28;20490;-64
2021/08/05 04:29:40;;;;;;;4.07;0.47;;;;;;;21.22;60.51;100256.19;5093770;28;20339;-64
2021/08/05 04:32:06;;;;;;;2.10;0.57;;;;;;;21.18;60.41;100246.88;5093689;28;20093;-64
2021/08/05 04:34:33;;;;;;;1.13;0.43;;;;;;;21.20;59.96;100250.19;5093507;28;20452;-64
2021/08/05 04:36:59;;;;;;;0.80;0.60;;;;;;;21.22;59.93;100250.84;5093761;28;20422;-64
2021/08/05 04:39:26;;;;;;;0.75;0.40;;;;;;;21.20;59.84;100248.34;5093550;28;20089;-64
2021/08/05 04:41:53;;;;;;;0.55;0.40;;;;;;;21.21;59.57;100244.66;5093533;28;20178;-64
2021/08/05 04:44:19;;;;;;;2.20;0.60;;;;;;;21.23;59.35;100244.53;5093353;28;20097;-67
2021/08/05 04:46:46;;;;;;;2.95;0.70;;;;;;;21.28;59.05;100249.34;5093336;28;20113;-67
2021/08/05 04:49:12;;;;;;;1.40;0.40;;;;;;;21.27;59.31;100258.34;5093276;28;20047;-67
2021/08/05 04:51:39;;;;;;;0.38;0.28;;;;;;;21.24;59.66;100256.00;5092424;28;20052;-67
2021/08/05 04:54:05;;;;;;;0.20;0.20;;;;;;;21.24;59.51;100259.50;5092885;28;20097;-67
2021/08/05 04:56:32;;;;;;;0.82;0.20;;;;;;;21.25;59.47;100266.50;5093002;28;20109;-66
2021/08/05 04:58:59;;;;;;;0.43;0.28;;;;;;;21.34;59.68;100264.66;5093019;28;20482;-67
2021/08/05 05:01:26;;;;;;;1.05;0.30;;;;;;;21.34;59.98;100268.19;5092937;28;20052;-67
2021/08/05 05:03:53;;;;;;;1.30;0.20;;;;;;;21.32;60.26;100274.69;5093059;28;20123;-67
2021/08/05 05:06:20;;;;;;;1.33;0.30;;;;;;;21.32;60.39;100272.84;5092937;28;20044;-67
2021/08/05 05:08:46;;;;;;;1.17;0.20;;;;;;;;;;5093092;28;20048;-64
2021/08/05 05:11:13;;;;;;;0.47;0.20;;;;;;;21.36;60.30;100274.16;5092698;28;20060;-64
2021/08/05 05:13:40;;;;;;;1.85;0.25;;;;;;;21.44;60.62;100277.84;5093045;28;20056;-64
2021/08/05 05:16:06;;;;;;;0.30;0.20;;;;;;;21.45;60.57;100282.19;5092773;28;20048;-64
2021/08/05 05:18:33;;;;;;;0.10;0.10;;;;;;;21.51;60.36;100281.50;5092788;28;20056;-65
2021/08/05 05:20:59;;;;;;;0.20;0.20;;;;;;;21.56;60.38;100281.84;5092699;28;20044;-65
2021/08/05 05:23:26;;;;;;;1.52;0.20;;;;;;;21.69;60.12;100282.16;5092862;28;20044;-65
2021/08/05 05:25:53;;;;;;;0.43;0.20;;;;;;;21.79;59.88;100291.81;5092827;28;20093;-65
2021/08/05 05:28:20;;;;;;;0.45;0.20;;;;;;;21.86;59.93;100284.75;5092547;28;20489;-65
2021/08/05 05:30:47;;;;;;;4.13;0.40;;;;;;;21.89;60.25;100279.09;5092451;28;20097;-64
2021/08/05 05:33:13;;;;;;;1.38;0.30;;;;;;;21.93;59.99;100275.06;5092409;28;20052;-65
2021/08/05 05:35:40;;;;;;;0.30;0.20;;;;;;;21.98;59.96;100271.88;5092663;28;20044;-65
2021/08/05 05:38:08;;;;;;;3.17;0.32;;;;;;;22.05;60.36;100277.34;5092323;28;20043;-65
2021/08/05 05:40:36;;;;;;;1.27;0.45;;;;;;;22.08;60.60;100280.53;5092515;28;20056;-65
2021/08/05 05:43:04;;;;;;;0.32;0.20;;;;;;;22.12;60.30;100276.47;5092521;28;20097;-65
2021/08/05 05:45:31;;;;;;;0.90;0.40;;;;;;;22.20;60.36;100280.94;5092350;28;20501;-65
2021/08/05 05:48:00;;;;;;;0.60;0.40;;;;;;;22.28;60.33;100275.59;5092322;28;20430;-65
2021/08/05 05:50:28;;;;;;;2.55;0.40;;;;;;;22.30;60.41;100284.25;5092106;28;20048;-65
2021/08/05 05:52:57;;;;;;;2.67;0.70;;;;;;;22.35;60.25;100281.88;5092350;28;20044;-65
2021/08/05 05:55:25;;;;;;;1.15;0.70;;;;;;;22.44;60.37;100274.66;5092001;28;20044;-65
2021/08/05 05:57:51;;;;;;;1.30;0.50;;;;;;;22.53;60.32;100278.13;5092302;28;20117;-65
2021/08/05 06:00:18;;;;;;;0.50;0.40;;;;;;;22.57;60.25;100284.78;5092028;28;20399;-65
2021/08/05 06:02:45;;;;;;;0.40;0.30;;;;;;;22.57;60.21;100287.44;5091912;28;20044;-65
2021/08/05 06:05:12;;;;;;;0.60;0.30;;;;;;;22.72;59.74;100289.38;5092306;28;20047;-65
2021/08/05 06:07:46;;;;;;;0.47;0.35;;;;;;;22.87;59.71;100290.28;5092193;28;20048;-65
2021/08/05 06:10:17;;;;;;;1.23;0.30;;;;;;;22.90;59.51;100289.91;5092097;28;20073;-65
2021/08/05 06:12:44;;;;;;;0.20;0.20;;;;;;;22.94;59.35;100291.22;5092193;28;20052;-65
2021/08/05 06:15:12;;;;;;;1.23;0.30;;;;;;;22.97;59.37;100285.50;5092024;28;20490;-65
2021/08/05 06:17:42;;;;;;;2.03;0.38;;;;;;;23.00;58.93;100281.63;5091942;28;20502;-65
2021/08/05 06:20:12;;;;;;;0.50;0.38;;;;;;;23.07;58.64;100279.91;5091867;28;20052;-65
2021/08/05 06:22:39;;;;;;;0.85;0.30;;;;;;;23.21;58.08;100275.63;5092095;28;20048;-65
2021/08/05 06:25:07;;;;;;;0.98;0.38;;;;;;;23.28;57.82;100284.59;5092000;28;20490;-65
2021/08/05 06:27:33;;;;;;;2.22;0.30;;;;;;;23.35;57.85;100283.84;5092066;28;20052;-65
2021/08/05 06:30:00;;;;;;;0.40;0.20;;;;;;;23.40;57.32;100282.31;5091713;28;20048;-65
2021/08/05 06:32:27;;;;;;;3.17;0.52;;;;;;;23.49;57.23;100285.75;5091897;28;20387;-66
2021/08/05 06:34:54;;;;;;;3.05;0.35;;;;;;;23.57;57.01;100287.50;5091973;28;20040;-65
2021/08/05 06:37:24;;;;;;;0.82;0.50;;;;;;;23.55;57.00;100286.84;5091807;28;20490;-65
2021/08/05 06:39:50;;;;;;;3.92;0.80;;;;;;;23.69;56.49;100286.00;5091773;28;20071;-65
2021/08/05 06:42:17;;;;;;;1.15;0.40;;;;;;;23.71;56.34;100285.84;5091681;28;20113;-65
2021/08/05 06:44:44;;;;;;;0.40;0.20;;;;;;;23.81;55.78;100284.53;5091871;28;20040;-65
2021/08/05 06:47:10;;;;;;;1.83;0.63;;;;;;;23.87;55.53;100285.66;5091675;28;20090;-65
2021/08/05 06:49:37;;;;;;;0.43;0.20;;;;;;;23.91;55.13;100289.66;5091784;28;20048;-65
2021/08/05 06:52:04;;;;;;;1.35;0.20;;;;;;;23.96;54.65;100281.88;5091749;28;20465;-65
2021/08/05 06:54:30;;;;;;;0.65;0.20;;;;;;;24.06;54.17;100283.44;5091648;28;20093;-66
2021/08/05 06:56:57;;;;;;;0.20;0.08;;;;;;;24.13;53.48;100284.38;5091649;28;20105;-66
2021/08/05 06:59:23;;;;;;;0.40;0.10;;;;;;;24.18;52.81;100283.81;5091485;28;20456;-66
2021/08/05 07:01:50;;;;;;;1.90;0.10;;;;;;;24.26;52.05;100276.50;5091593;28;20047;-65
2021/08/05 07:04:17;;;;;;;0.98;0.30;;;;;;;24.34;51.35;100277.38;5091621;28;20049;-65
2021/08/05 07:06:43;;;;;;;2.15;0.28;;;;;;;24.35;51.06;100279.88;5091600;28;20044;-65
2021/08/05 07:09:10;;;;;;;6.13;0.10;;;;;;;24.46;50.42;100286.59;5091584;28;20543;-65
2021/08/05 07:11:36;;;;;;;1.00;0.17;;;;;;;24.56;50.07;100276.38;5091617;28;20048;-66
2021/08/05 07:14:03;;;;;;;0.50;0.13;;;;;;;24.65;49.82;100277.13;5091505;28;20044;-66
2021/08/05 07:16:30;;;;;;;1.02;0.13;;;;;;;24.78;49.53;100279.09;5093995;28;20052;-66
2021/08/05 07:18:57;;;;;;;0.15;0.10;;;;;;;24.88;49.40;100281.47;5094957;28;20470;-66
2021/08/05 07:21:23;;;;;;;0.35;0.10;;;;;;;24.90;49.21;100282.94;5094948;28;20052;-65
2021/08/05 07:23:50;;;;;;;0.70;0.15;;;;;;;24.97;48.82;100276.81;5094899;28;20048;-66
2021/08/05 07:26:17;;;;;;;1.08;0.10;;;;;;;25.05;48.51;100282.03;5095164;28;20097;-65
2021/08/05 07:28:44;;;;;;;0.80;0.20;;;;;;;25.08;48.52;100281.66;5094860;28;20044;-65
2021/08/05 07:31:11;;;;;;;0.22;0.10;;;;;;;25.12;48.44;100277.53;5094751;28;20075;-66
2021/08/05 07:33:42;;;;;;;1.27;0.20;;;;;;;25.16;48.29;100280.69;5094896;28;20047;-65
2021/08/05 07:36:09;;;;;;;0.43;0.20;;;;;;;25.30;48.29;100276.25;5094632;28;20056;-65
2021/08/05 07:38:35;;;;;;;0.80;0.20;;;;;;;25.41;48.00;100278.41;5094688;28;20101;-66
2021/08/05 07:41:02;;;;;;;1.95;0.22;;;;;;;25.46;48.00;100281.34;5094666;28;20083;-66
2021/08/05 07:43:29;;;;;;;0.43;0.10;;;;;;;25.54;47.96;100285.72;5094601;28;20164;-65
2021/08/05 07:45:55;;;;;;;1.60;0.15;;;;;;;25.67;48.00;100285.78;5094693;28;20044;-66
2021/08/05 07:48:22;;;;;;;2.38;0.65;;;;;;;25.69;48.06;100278.38;5094450;28;20040;-66
2021/08/05 07:50:48;;;;;;;2.20;0.80;;;;;;;25.63;48.21;100281.03;5094552;28;20455;-65
2021/08/05 07:53:16;;;;;;;2.70;0.40;;;;;;;25.68;48.09;100284.78;5094249;28;20117;-65
2021/08/05 07:55:43;;;;;;;1.35;0.30;;;;;;;25.73;47.98;100282.31;5094293;28;20056;-66
2021/08/05 07:58:09;;;;;;;0.60;0.30;;;;;;;25.80;47.84;100286.91;5094142;28;20047;-65
2021/08/05 08:00:36;;;;;;;0.82;0.20;;;;;;;25.88;47.77;100284.88;5094302;28;20490;-65
2021/08/05 08:03:04;;;;;;;1.40;0.38;;;;;;;26.03;47.58;100282.06;5094456;28;20044;-65
2021/08/05 08:05:31;;;;;;;1.13;0.45;;;;;;;26.15;47.51;100287.72;5094196;28;20047;-66
2021/08/05 08:07:59;;;;;;;1.50;0.30;;;;;;;26.14;47.75;100287.94;5094563;28;20101;-65
2021/08/05 08:10:27;;;;;;;1.27;0.30;;;;;;;26.27;47.25;100282.59;5094153;28;20047;-66
2021/08/05 08:13:06;;;;;;;1.38;0.50;;;;;;;26.34;47.50;100286.13;5094176;28;20046;-66
2021/08/05 08:15:33;;;;;;;0.60;0.30;;;;;;;26.46;47.27;100286.38;5094007;28;20109;-66
2021/08/05 08:18:00;;;;;;;1.17;0.22;;;;;;;26.58;47.08;100289.31;5093908;28;20101;-66
2021/08/05 08:20:27;;;;;;;2.28;0.20;;;;;;;26.71;46.50;100300.06;5093824;28;20052;-65
2021/08/05 08:22:53;;;;;;;1.00;0.45;;;;;;;26.78;46.61;100289.38;5094026;28;20052;-66
2021/08/05 08:25:20;;;;;;;1.92;0.40;;;;;;;26.72;46.96;100292.84;5093649;28;20077;-66
2021/08/05 08:27:47;;;;;;;3.38;0.98;;;;;;;26.69;46.78;100298.63;5093699;28;20071;-66
2021/08/05 08:30:14;;;;;;;1.15;0.50;;;;;;;26.75;46.50;100303.22;5075909;28;20044;-65
2021/08/05 08:32:44;;;;;;;2.80;0.60;;;;;;;26.87;45.98;100298.91;5093551;28;20047;-66
2021/08/05 08:35:11;;;;;;;1.23;0.40;;;;;;;27.09;45.91;100292.50;5093584;28;20097;-66
2021/08/05 08:37:38;;;;;;;3.88;0.50;;;;;;;27.13;45.73;100289.16;5093582;28;20044;-66
2021/08/05 08:40:06;;;;;;;2.33;0.40;;;;;;;27.26;45.03;100291.03;5093375;28;20486;-66
2021/08/05 08:42:33;;;;;;;0.68;0.30;;;;;;;27.21;44.88;100288.13;5093302;28;20436;-66
2021/08/05 08:45:00;;;;;;;0.50;0.25;;;;;;;27.41;44.54;100290.84;5093462;28;20101;-66
2021/08/05 08:47:28;;;;;;;0.60;0.20;;;;;;;27.64;43.89;100282.31;5093276;28;20579;-65
2021/08/05 08:49:56;;;;;;;1.00;0.40;;;;;;;27.61;44.15;100280.03;5093547;28;20040;-65
2021/08/05 08:52:25;;;;;;;2.85;0.38;;;;;;;27.76;43.60;100276.25;5093160;28;20081;-65
2021/08/05 08:54:54;;;;;;;0.47;0.17;;;;;;;27.93;43.24;100274.72;5093299;28;20456;-66
2021/08/05 08:57:23;;;;;;;0.98;0.32;;;;;;;28.03;42.86;100271.63;5093009;28;20048;-66
2021/08/05 08:59:50;;;;;;;1.30;0.25;;;;;;;28.19;42.49;100273.81;5093160;28;20056;-66
2021/08/05 09:02:17;;;;;;;1.60;0.40;;;;;;;28.29;42.25;100276.06;5093166;28;20117;-65
2021/08/05 09:04:46;;;;;;;3.15;0.20;;;;;;;28.40;42.15;100274.53;5092969;28;20131;-66
2021/08/05 09:07:12;;;;;;;3.22;0.25;;;;;;;28.65;41.41;100271.06;5093021;28;20048;-66
2021/08/05 09:09:39;;;;;;;4.97;1.38;;;;;;;28.82;41.18;100265.97;5092970;28;20048;-66
2021/08/05 09:12:13;;;;;;;2.03;0.32;;;;;;;28.97;40.95;100263.78;5092945;28;20075;-66
2021/08/05 09:14:48;;;;;;;1.77;0.45;;;;;;;29.07;40.28;100254.38;5092953;28;20476;-66
2021/08/05 09:17:24;;;;;;;0.73;0.30;;;;;;;29.00;40.64;100247.16;5092788;28;20051;-66
2021/08/05 09:19:56;;;;;;;2.15;0.40;;;;;;;29.13;40.30;100256.19;5092877;28;20051;-66
2021/08/05 09:22:39;;;;;;;3.20;0.40;;;;;;;28.28;42.10;100262.78;5092639;28;20040;-66
2021/08/05 09:25:18;;;;;;;1.13;0.40;;;;;;;28.26;42.16;100265.69;5092778;28;20047;-66
2021/08/05 09:27:46;;;;;;;4.18;0.47;;;;;;;28.44;42.19;100269.53;5092708;28;20044;-65
2021/08/05 09:30:37;;;;;;;2.40;0.50;;;;;;;28.87;41.23;100274.25;5092459;28;20051;-66
2021/08/05 09:33:17;;;;;;;1.45;0.30;;;;;;;29.14;40.48;100274.88;5092484;28;20627;-66
2021/08/05 09:35:45;;;;;;;1.67;0.40;;;;;;;29.39;40.14;100275.91;5092618;28;20490;-66
2021/08/05 09:38:23;;;;;;;2.30;0.38;;;;;;;29.68;40.09;100273.53;5091926;28;20506;-66
2021/08/05 09:41:06;;;;;;;2.28;0.43;;;;;;;29.86;39.24;100272.72;5092407;28;20052;-66
2021/08/05 09:43:34;;;;;;;1.25;0.30;;;;;;;30.04;38.89;100261.06;5092424;28;20554;-66
2021/08/05 09:46:00;;;;;;;0.77;0.40;;;;;;;30.25;39.05;100257.03;5092372;28;20473;-66
2021/08/05 09:48:38;;;;;;;1.10;0.40;;;;;;;30.41;38.85;100269.94;5092276;28;20048;-66
2021/08/05 09:51:06;;;;;;;1.75;0.30;;;;;;;30.28;38.83;100262.81;5092212;28;20048;-66
2021/08/05 09:53:33;;;;;;;1.95;0.40;;;;;;;30.49;38.42;100267.97;5092385;28;20040;-65
2021/08/05 09:56:11;;;;;;;1.38;0.28;;;;;;;30.34;38.41;100269.19;5091970;28;20098;-66
2021/08/05 09:58:40;;;;;;;4.18;0.60;;;;;;;30.62;37.60;100274.00;5092225;28;20055;-66
2021/08/05 10:01:16;;;;;;;2.47;0.30;;;;;;;30.45;38.08;100275.72;5092195;28;20047;-65
2021/08/05 10:03:43;;;;;;;1.02;0.40;;;;;;;30.71;37.28;100260.97;5092100;28;20050;-65
2021/08/05 10:06:10;;;;;;;1.10;0.40;;;;;;;30.83;37.46;100274.53;5091979;28;20559;-66
2021/08/05 10:08:39;;;;;;;1.05;0.35;;;;;;;31.00;36.60;100261.13;5092206;28;20121;-66
2021/08/05 10:11:07;;;;;;;4.47;0.40;;;;;;;31.04;36.62;100258.78;5092048;28;20093;-65
2021/08/05 10:13:38;;;;;;;0.55;0.10;;;;;;;31.24;36.53;100263.88;5092195;28;20039;-66
2021/08/05 10:16:07;;;;;;;1.20;0.40;;;;;;;31.44;35.59;100258.09;5092062;28;20045;-66
2021/08/05 10:18:35;;;;;;;0.98;0.40;;;;;;;31.50;35.84;100253.59;5092092;28;20055;-66
2021/08/05 10:21:08;;;;;;;0.70;0.30;;;;;;;31.67;35.73;100248.25;5092144;28;20070;-66
2021/08/05 10:23:38;;;;;;;2.30;0.50;;;;;;;31.66;35.62;100252.88;5092176;28;20048;-66
2021/08/05 10:26:07;;;;;;;1.20;0.20;;;;;;;31.71;35.05;100252.16;5092115;28;20052;-66
2021/08/05 10:28:37;;;;;;;0.93;0.38;;;;;;;31.89;34.93;100248.47;5091895;28;20052;-66
2021/08/05 10:31:08;;;;;;;1.13;0.32;;;;;;;32.14;34.29;100250.84;5091952;28;20044;-66
2021/08/05 10:33:35;;;;;;;0.98;0.10;;;;;;;32.26;34.27;100253.53;5092092;28;20051;-66
2021/08/05 10:36:03;;;;;;;1.13;0.52;;;;;;;32.07;34.37;100247.44;5091772;28;20044;-66
2021/08/05 10:38:30;;;;;;;1.25;0.30;;;;;;;32.36;34.21;100250.19;5091745;28;20109;-66
2021/08/05 10:41:00;;;;;;;1.58;0.40;;;;;;;32.32;34.24;100246.31;5091799;28;20044;-66
2021/08/05 10:43:27;;;;;;;0.50;0.40;;;;;;;32.49;33.94;100243.59;5091713;28;20063;-66
2021/08/05 10:45:55;;;;;;;3.25;1.02;;;;;;;32.45;34.61;100239.75;5091683;28;20048;-66
2021/08/05 10:48:22;;;;;;;3.45;0.88;;;;;;;32.27;34.59;100241.59;5091597;28;20083;-66
2021/08/05 10:50:49;;;;;;;0.85;0.60;;;;;;;32.40;34.79;100232.31;5094821;28;20551;-66
2021/08/05 10:53:41;;;;;;;0.82;0.60;;;;;;;32.20;34.88;100236.31;5095463;28;20094;-66
2021/08/05 10:56:24;;;;;;;1.77;0.50;;;;;;;32.20;34.49;100241.75;5095187;28;20449;-66
2021/08/05 10:59:03;;;;;;;1.40;0.40;;;;;;;32.39;34.38;100238.81;5095472;28;20494;-66
2021/08/05 11:01:59;;;;;;;3.38;0.45;;;;;;;32.58;34.03;100239.41;5095402;28;20044;-66
2021/08/05 11:04:32;;;;;;;3.03;0.60;;;;;;;32.55;34.15;100234.47;5067762;28;20740;-66
2021/08/05 11:07:21;;;;;;;0.60;0.50;;;;;;;32.55;33.85;100234.47;5095129;28;20044;-66
2021/08/05 11:09:50;;;;;;;0.70;0.50;;;;;;;32.64;33.38;100232.19;5095466;28;20086;-66
2021/08/05 11:12:39;;;;;;;1.77;0.50;;;;;;;32.49;33.87;100236.28;5095076;28;20052;-66
2021/08/05 11:15:26;;;;;;;1.70;0.73;;;;;;;32.79;33.45;100231.66;5095105;28;20044;-66
2021/08/05 11:18:15;;;;;;;2.08;0.57;;;;;;;32.85;33.37;100227.94;5094751;28;20044;-66
2021/08/05 11:20:42;;;;;;;0.95;0.52;;;;;;;33.04;33.34;100215.72;5095081;28;20101;-66
2021/08/05 11:23:25;;;;;;;1.48;0.50;;;;;;;32.73;33.32;100222.53;5094992;28;20567;-66
2021/08/05 11:25:52;;;;;;;0.52;0.32;;;;;;;33.10;33.17;100210.34;5094983;28;20044;-66
2021/08/05 11:28:21;;;;;;;0.52;0.50;;;;;;;33.42;32.51;100199.66;5094873;28;20094;-66
2021/08/05 11:31:03;;;;;;;1.83;0.38;;;;;;;33.79;32.15;100201.72;5094951;28;20047;-66
2021/08/05 11:33:43;;;;;;;1.35;0.55;;;;;;;32.77;33.75;100225.63;5094678;28;20498;-66
2021/08/05 11:36:17;;;;;;;0.63;0.50;;;;;;;32.87;33.79;100213.03;5094635;28;20047;-66